createdAt,value
2022-12-28T00:01:21.040Z,97339.56
2022-12-28T00:03:48.744Z,97335.50
2022-12-28T00:06:16.641Z,97336.31
2022-12-28T00:08:43.861Z,97333.72
2022-12-28T00:11:28.487Z,97331.13
2022-12-28T00:14:00.468Z,97324.16
2022-12-28T00:16:31.620Z,97310.53
2022-12-28T00:19:00.699Z,97312.16
2022-12-28T00:21:28.440Z,97313.59
2022-12-28T00:23:58.664Z,97315.22
2022-12-28T00:26:27.378Z,97310.22
2022-12-28T00:29:00.079Z,97319.59
2022-12-28T00:31:31.406Z,97309.03
2022-12-28T00:33:58.386Z,97313.25
2022-12-28T00:37:07.490Z,97313.06
2022-12-28T00:39:12.630Z,97312.44
2022-12-28T00:41:39.555Z,97320.22
2022-12-28T00:44:08.655Z,97323.63
2022-12-28T00:46:36.032Z,97328.66
2022-12-28T00:49:03.012Z,97331.41
2022-12-28T00:51:29.962Z,97327.72
2022-12-28T00:53:57.213Z,97329.88
2022-12-28T00:56:24.371Z,97343.06
2022-12-28T00:58:57.657Z,97333.81
2022-12-28T01:01:26.189Z,97346.22
2022-12-28T01:03:56.189Z,97344.78
2022-12-28T01:06:25.877Z,97340.50
2022-12-28T01:08:53.109Z,97340.84
2022-12-28T01:11:23.036Z,97332.09
2022-12-28T01:13:52.005Z,97332.28
2022-12-28T01:16:22.144Z,97334.69
2022-12-28T01:18:52.161Z,97336.94
2022-12-28T01:21:24.138Z,97325.13
2022-12-28T01:23:56.619Z,97330.13
2022-12-28T01:26:24.966Z,97325.22
2022-12-28T01:28:51.978Z,97322.47
2022-12-28T01:31:20.579Z,97320.03
2022-12-28T01:33:48.245Z,97324.09
2022-12-28T01:36:20.880Z,97325.22
2022-12-28T01:38:49.361Z,97319.97
2022-12-28T01:41:17.971Z,97321.44
2022-12-28T01:44:08.056Z,97313.31
2022-12-28T01:46:50.267Z,97310.66
2022-12-28T01:49:19.543Z,97301.75
2022-12-28T01:52:19.850Z,97296.78
2022-12-28T01:55:09.294Z,97284.13
2022-12-28T01:57:42.521Z,97283.53
2022-12-28T02:00:13.936Z,97276.28
2022-12-28T02:02:57.609Z,97277.00
2022-12-28T02:05:30.165Z,97279.75
2022-12-28T02:08:11.887Z,97281.91
2022-12-28T02:10:45.831Z,97283.19
2022-12-28T02:13:16.714Z,97275.81
2022-12-28T02:15:44.809Z,97271.59
2022-12-28T02:18:14.691Z,97270.00
2022-12-28T02:20:59.669Z,97279.94
2022-12-28T02:23:33.491Z,97278.03
2022-12-28T02:26:19.300Z,97270.88
2022-12-28T02:29:10.621Z,97266.22
2022-12-28T02:32:03.046Z,97267.84
2022-12-28T02:34:38.970Z,97273.19
2022-12-28T02:37:35.691Z,97274.50
2022-12-28T02:40:08.808Z,97268.84
2022-12-28T02:42:39.605Z,97274.97
2022-12-28T02:45:27.218Z,97271.44
2022-12-28T02:48:12.714Z,97257.22
2022-12-28T02:50:59.599Z,97248.44
2022-12-28T02:53:49.782Z,97242.97
2022-12-28T02:56:39.010Z,97244.56
2022-12-28T02:59:34.931Z,97233.56
2022-12-28T03:02:21.146Z,97235.03
2022-12-28T03:04:54.188Z,97227.44
2022-12-28T03:07:48.794Z,97227.28
2022-12-28T03:10:16.036Z,97229.56
2022-12-28T03:13:44.670Z,97224.38
2022-12-28T03:16:28.849Z,97216.63
2022-12-28T03:19:41.870Z,97208.75
2022-12-28T03:22:30.310Z,97206.78
2022-12-28T03:25:20.229Z,97205.22
2022-12-28T03:28:09.099Z,97200.88
2022-12-28T03:30:59.317Z,97198.13
2022-12-28T03:33:26.531Z,97197.00
2022-12-28T03:36:03.739Z,97198.47
2022-12-28T03:38:41.516Z,97192.47
2022-12-28T03:41:15.125Z,97199.78
2022-12-28T03:43:54.479Z,97198.31
2022-12-28T03:46:29.810Z,97200.09
2022-12-28T03:48:59.569Z,97199.28
2022-12-28T03:51:30.588Z,97194.91
2022-12-28T03:54:01.877Z,97195.72
2022-12-28T03:56:29.562Z,97191.66
2022-12-28T03:59:00.013Z,97198.63
2022-12-28T04:01:35.759Z,97181.03
2022-12-28T04:04:08.989Z,97174.53
2022-12-28T04:06:36.663Z,97169.38
2022-12-28T04:09:05.001Z,97171.94
2022-12-28T04:11:36.592Z,97173.25
2022-12-28T04:14:10.648Z,97171.31
2022-12-28T04:16:41.830Z,97165.97
2022-12-28T04:19:14.090Z,97174.53
2022-12-28T04:21:41.239Z,97177.78
2022-12-28T04:24:08.472Z,97169.03
2022-12-28T04:26:36.854Z,97165.50
2022-12-28T04:29:04.036Z,97167.44
2022-12-28T04:31:31.674Z,97175.84
2022-12-28T04:34:06.623Z,97179.84
2022-12-28T04:36:39.683Z,97172.91
2022-12-28T04:39:11.752Z,97175.34
2022-12-28T04:41:40.288Z,97174.22
2022-12-28T04:44:07.391Z,97168.38
2022-12-28T04:46:34.643Z,97166.28
2022-12-28T04:49:01.953Z,97162.53
2022-12-28T04:51:29.770Z,97166.28
2022-12-28T04:53:57.991Z,97163.03
2022-12-28T04:56:25.774Z,97169.63
2022-12-28T04:59:00.911Z,97172.88
2022-12-28T05:01:28.322Z,97172.72
2022-12-28T05:03:58.269Z,97180.16
2022-12-28T05:06:28.081Z,97169.63
2022-12-28T05:08:57.219Z,97177.38
2022-12-28T05:11:28.076Z,97173.34
2022-12-28T05:13:56.169Z,97168.63
2022-12-28T05:16:25.273Z,97163.47
2022-12-28T05:18:52.454Z,97163.19
2022-12-28T05:21:22.632Z,97156.69
2022-12-28T05:23:50.291Z,97161.25
2022-12-28T05:26:19.711Z,97160.09
2022-12-28T05:28:47.311Z,97159.94
2022-12-28T05:31:17.736Z,97160.88
2022-12-28T05:33:45.049Z,97152.81
2022-12-28T05:36:15.407Z,97147.00
2022-12-28T05:38:43.059Z,97141.81
2022-12-28T05:41:17.348Z,97137.63
2022-12-28T05:43:44.750Z,97147.34
2022-12-28T05:46:15.892Z,97154.44
2022-12-28T05:48:43.734Z,97157.88
2022-12-28T05:51:13.600Z,97157.06
2022-12-28T05:53:41.930Z,97157.72
2022-12-28T05:56:14.636Z,97169.19
2022-12-28T05:58:43.449Z,97158.84
2022-12-28T06:01:10.463Z,97168.53
2022-12-28T06:03:38.489Z,97165.78
2022-12-28T06:06:15.068Z,97159.00
2022-12-28T06:08:43.877Z,97152.41
2022-12-28T06:11:13.407Z,97155.94
2022-12-28T06:13:41.023Z,97163.88
2022-12-28T06:16:09.943Z,97159.00
2022-12-28T06:18:37.241Z,97152.22
2022-12-28T06:21:05.906Z,97158.38
2022-12-28T06:23:33.399Z,97150.63
2022-12-28T06:26:02.112Z,97146.06
2022-12-28T06:28:29.669Z,97139.47
2022-12-28T06:31:13.544Z,97141.28
2022-12-28T06:33:41.874Z,97142.41
2022-12-28T06:36:20.696Z,97138.03
2022-12-28T06:38:49.251Z,97139.97
2022-12-28T06:41:18.000Z,97136.91
2022-12-28T06:43:45.948Z,97140.47
2022-12-28T06:46:14.357Z,97129.69
2022-12-28T06:48:42.032Z,97118.84
2022-12-28T06:51:13.579Z,97123.22
2022-12-28T06:53:40.810Z,97120.00
2022-12-28T06:56:11.745Z,97120.00
2022-12-28T06:58:39.142Z,97122.75
2022-12-28T07:01:09.154Z,97121.59
2022-12-28T07:03:36.330Z,97115.31
2022-12-28T07:06:05.324Z,97109.81
2022-12-28T07:08:33.268Z,97091.22
2022-12-28T07:11:04.129Z,97094.78
2022-12-28T07:13:31.488Z,97088.50
2022-12-28T07:16:05.957Z,97096.53
2022-12-28T07:18:33.989Z,97094.44
2022-12-28T07:21:06.162Z,97093.16
2022-12-28T07:23:34.907Z,97090.53
2022-12-28T07:26:22.961Z,97094.56
2022-12-28T07:28:53.072Z,97096.63
2022-12-28T07:31:26.128Z,97091.09
2022-12-28T07:33:56.087Z,97090.75
2022-12-28T07:36:24.352Z,97089.94
2022-12-28T07:38:51.367Z,97086.84
2022-12-28T07:41:23.946Z,97085.09
2022-12-28T07:43:51.413Z,97088.84
2022-12-28T07:46:27.782Z,97101.75
2022-12-28T07:48:55.708Z,97105.72
2022-12-28T07:51:27.352Z,97104.25
2022-12-28T07:53:56.333Z,97104.56
2022-12-28T07:56:25.306Z,97097.13
2022-12-28T07:58:55.229Z,97097.63
2022-12-28T08:01:24.603Z,97103.88
2022-12-28T08:03:57.609Z,97096.56
2022-12-28T08:06:26.271Z,97105.34
2022-12-28T08:08:55.465Z,97103.03
2022-12-28T08:11:25.218Z,97101.09
2022-12-28T08:13:54.153Z,97109.59
2022-12-28T08:16:23.036Z,97112.84
2022-12-28T08:18:50.366Z,97106.97
2022-12-28T08:21:21.233Z,97104.00
2022-12-28T08:23:48.986Z,97109.56
2022-12-28T08:26:19.772Z,97102.91
2022-12-28T08:28:49.628Z,97109.63
2022-12-28T08:31:20.267Z,97112.81
2022-12-28T08:33:48.427Z,97124.59
2022-12-28T08:36:15.924Z,97124.72
2022-12-28T08:38:44.887Z,97113.28
2022-12-28T08:41:17.610Z,97122.19
2022-12-28T08:43:45.847Z,97129.06
2022-12-28T08:46:21.355Z,97143.28
2022-12-28T08:48:50.248Z,97144.53
2022-12-28T08:51:23.246Z,97151.16
2022-12-28T08:53:50.773Z,97144.84
2022-12-28T08:56:27.888Z,97137.88
2022-12-28T08:58:55.954Z,97135.38
2022-12-28T09:01:43.015Z,97130.47
2022-12-28T09:04:19.752Z,97137.53
2022-12-28T09:06:47.382Z,97125.19
2022-12-28T09:09:16.832Z,97128.06
2022-12-28T09:11:44.906Z,97121.97
2022-12-28T09:14:22.239Z,97128.56
2022-12-28T09:16:51.421Z,97132.56
2022-12-28T09:19:18.497Z,97136.06
2022-12-28T09:21:49.137Z,97134.63
2022-12-28T09:24:16.786Z,97142.50
2022-12-28T09:26:44.408Z,97139.09
2022-12-28T09:29:13.985Z,97134.13
2022-12-28T09:31:41.910Z,97131.81
2022-12-28T09:36:59.884Z,97127.03
2022-12-28T09:39:27.223Z,97116.00
2022-12-28T09:41:59.966Z,97108.94
2022-12-28T09:45:09.139Z,97105.25
2022-12-28T09:47:52.011Z,97100.94
2022-12-28T09:50:19.172Z,97094.56
2022-12-28T09:53:08.165Z,97100.81
2022-12-28T09:55:38.419Z,97094.31
2022-12-28T09:58:12.425Z,97086.38
2022-12-28T10:00:44.070Z,97080.22
2022-12-28T10:03:40.302Z,97076.81
2022-12-28T10:06:26.307Z,97083.84
2022-12-28T10:08:59.007Z,97074.63
2022-12-28T10:11:34.853Z,97073.81
2022-12-28T10:14:12.546Z,97067.16
2022-12-28T10:16:44.037Z,97063.44
2022-12-28T10:19:19.906Z,97068.41
2022-12-28T10:21:48.507Z,97067.38
2022-12-28T10:24:32.450Z,97064.09
2022-12-28T10:27:02.530Z,97067.03
2022-12-28T10:29:32.724Z,97049.41
2022-12-28T10:31:59.724Z,97051.41
2022-12-28T10:34:33.467Z,97045.88
2022-12-28T10:37:18.192Z,97037.69
2022-12-28T10:39:58.329Z,97024.09
2022-12-28T10:42:31.047Z,97026.47
2022-12-28T10:45:03.727Z,97024.81
2022-12-28T10:47:36.146Z,97017.22
2022-12-28T10:52:58.683Z,97021.84
2022-12-28T10:55:32.041Z,97018.78
2022-12-28T10:58:34.229Z,97017.44
2022-12-28T11:01:26.004Z,97008.34
2022-12-28T11:03:55.751Z,96997.31
2022-12-28T11:06:34.256Z,96992.72
2022-12-28T11:09:25.265Z,96993.41
2022-12-28T11:11:54.684Z,96981.94
2022-12-28T11:14:35.460Z,96986.97
2022-12-28T11:17:23.907Z,96969.13
2022-12-28T11:20:16.620Z,96968.88
2022-12-28T11:22:45.956Z,96963.31
2022-12-28T11:25:22.091Z,96954.47
2022-12-28T11:27:49.487Z,96958.88
2022-12-28T11:30:19.049Z,96945.44
2022-12-28T11:32:58.666Z,96949.03
2022-12-28T11:35:38.918Z,96940.63
2022-12-28T11:38:07.573Z,96945.66
2022-12-28T11:40:43.844Z,96940.81
2022-12-28T11:43:29.276Z,96936.34
2022-12-28T11:46:00.505Z,96924.06
2022-12-28T11:48:48.032Z,96911.59
2022-12-28T11:51:29.046Z,96907.75
2022-12-28T11:53:59.643Z,96905.69
2022-12-28T11:56:36.847Z,96905.19
2022-12-28T11:59:20.886Z,96899.72
2022-12-28T12:13:27.118Z,96877.31
2022-12-28T12:16:08.686Z,96873.91
2022-12-28T12:18:46.376Z,96874.34
2022-12-28T12:21:27.265Z,96868.09
2022-12-28T12:24:04.990Z,96859.66
2022-12-28T12:26:50.037Z,96850.28
2022-12-28T12:29:32.026Z,96847.59
2022-12-28T12:32:11.990Z,96838.88
2022-12-28T12:34:44.827Z,96830.13
2022-12-28T12:37:39.550Z,96823.41
2022-12-28T12:40:09.935Z,96821.88
2022-12-28T12:42:54.106Z,96816.66
2022-12-28T12:45:31.075Z,96819.09
2022-12-28T12:48:22.568Z,96817.19
2022-12-28T12:51:19.066Z,96804.66
2022-12-28T12:53:52.668Z,96808.75
2022-12-28T12:56:50.350Z,96800.22
2022-12-28T12:59:29.577Z,96792.47
2022-12-28T13:02:12.141Z,96796.16
2022-12-28T13:04:46.254Z,96798.91
2022-12-28T13:07:19.468Z,96794.19
2022-12-28T13:09:47.892Z,96792.78
2022-12-28T13:12:18.227Z,96796.81
2022-12-28T13:14:51.608Z,96788.31
2022-12-28T13:17:22.363Z,96790.09
2022-12-28T13:19:49.377Z,96786.47
2022-12-28T13:22:33.870Z,96782.69
2022-12-28T13:25:00.911Z,96776.81
2022-12-28T13:27:36.102Z,96782.59
2022-12-28T13:30:04.667Z,96774.41
2022-12-28T13:32:38.264Z,96774.03
2022-12-28T13:35:21.027Z,96774.19
2022-12-28T13:38:09.819Z,96778.00
2022-12-28T13:40:39.713Z,96775.13
2022-12-28T13:43:06.655Z,96782.91
2022-12-28T13:45:34.567Z,96783.25
2022-12-28T13:48:02.507Z,96774.63
2022-12-28T13:50:34.135Z,96776.34
2022-12-28T13:53:07.120Z,96772.06
2022-12-28T13:55:39.857Z,96768.22
2022-12-28T13:58:14.588Z,96770.03
2022-12-28T14:00:46.184Z,96764.25
2022-12-28T14:03:13.976Z,96768.09
2022-12-28T14:05:55.374Z,96762.75
2022-12-28T14:08:23.278Z,96761.72
2022-12-28T14:10:51.389Z,96762.25
2022-12-28T14:13:18.725Z,96765.00
2022-12-28T14:15:47.612Z,96766.75
2022-12-28T14:18:19.160Z,96763.00
2022-12-28T14:20:51.167Z,96766.13
2022-12-28T14:23:28.356Z,96771.53
2022-12-28T14:25:58.808Z,96770.06
2022-12-28T14:28:32.387Z,96766.31
2022-12-28T14:30:59.539Z,96773.03
2022-12-28T14:33:29.368Z,96766.06
2022-12-28T14:36:01.696Z,96775.00
2022-12-28T14:38:40.629Z,96784.13
2022-12-28T14:41:07.896Z,96778.59
2022-12-28T14:43:36.877Z,96783.69
2022-12-28T14:46:18.499Z,96778.56
2022-12-28T14:48:46.288Z,96787.66
2022-12-28T14:51:17.517Z,96782.75
2022-12-28T14:53:45.641Z,96777.19
2022-12-28T14:56:17.767Z,96784.09
2022-12-28T15:00:16.457Z,96776.34
2022-12-28T15:01:42.889Z,96772.84
2022-12-28T15:04:27.081Z,96771.34
2022-12-28T15:06:54.983Z,96780.22
2022-12-28T15:09:22.244Z,96768.81
2022-12-28T15:11:49.407Z,96770.25
2022-12-28T15:14:16.611Z,96777.50
2022-12-28T15:16:44.578Z,96771.31
2022-12-28T15:19:11.690Z,96772.13
2022-12-28T15:21:38.741Z,96777.94
2022-12-28T15:24:06.193Z,96781.13
2022-12-28T15:26:33.270Z,96774.13
2022-12-28T15:29:05.447Z,96769.75
2022-12-28T15:31:32.531Z,96773.53
2022-12-28T15:33:59.549Z,96772.13
2022-12-28T15:36:26.607Z,96772.13
2022-12-28T15:38:56.728Z,96774.09
2022-12-28T15:41:42.667Z,96776.69
2022-12-28T15:44:09.908Z,96783.47
2022-12-28T15:46:36.949Z,96779.06
2022-12-28T15:49:05.434Z,96773.03
2022-12-28T15:51:32.288Z,96773.03
2022-12-28T15:53:59.375Z,96769.38
2022-12-28T15:56:37.393Z,96768.00
2022-12-28T15:59:07.916Z,96757.97
2022-12-28T16:01:35.436Z,96765.56
2022-12-28T16:04:03.551Z,96767.97
2022-12-28T16:06:35.041Z,96764.56
2022-12-28T16:09:05.867Z,96770.16
2022-12-28T16:11:34.387Z,96767.34
2022-12-28T16:14:04.899Z,96760.53
2022-12-28T16:16:36.575Z,96765.28
2022-12-28T16:19:04.757Z,96764.28
2022-12-28T16:21:31.884Z,96762.66
2022-12-28T16:24:00.583Z,96765.22
2022-12-28T16:26:28.509Z,96761.59
2022-12-28T16:28:55.811Z,96759.34
2022-12-28T16:31:25.813Z,96761.09
2022-12-28T16:33:57.933Z,96760.06
2022-12-28T16:36:25.758Z,96770.25
2022-12-28T16:38:52.849Z,96765.84
2022-12-28T16:41:20.487Z,96765.59
2022-12-28T16:43:48.473Z,96766.97
2022-12-28T16:46:16.168Z,96768.75
2022-12-28T16:48:43.574Z,96764.09
2022-12-28T16:51:11.974Z,96762.69
2022-12-28T16:53:39.189Z,96757.50
2022-12-28T16:56:07.341Z,96764.84
2022-12-28T16:58:34.510Z,96773.84
2022-12-28T17:01:09.450Z,96771.56
2022-12-28T17:03:38.654Z,96769.16
2022-12-28T17:06:06.667Z,96773.31
2022-12-28T17:08:35.980Z,96767.84
2022-12-28T17:11:07.709Z,96772.38
2022-12-28T17:13:35.019Z,96772.53
2022-12-28T17:16:02.664Z,96762.91
2022-12-28T17:18:30.071Z,96776.06
2022-12-28T17:21:00.553Z,96771.13
2022-12-28T17:23:31.911Z,96760.56
2022-12-28T17:25:58.876Z,96755.88
2022-12-28T17:28:26.112Z,96753.09
2022-12-28T17:31:10.470Z,96750.13
2022-12-28T17:33:40.077Z,96751.56
2022-12-28T17:36:09.074Z,96743.38
2022-12-28T17:38:36.696Z,96744.81
2022-12-28T17:41:11.182Z,96739.25
2022-12-28T17:43:38.411Z,96745.03
2022-12-28T17:46:05.674Z,96743.44
2022-12-28T17:48:32.840Z,96742.59
2022-12-28T17:51:00.167Z,96733.75
2022-12-28T17:53:27.109Z,96737.09
2022-12-28T17:55:54.166Z,96731.88
2022-12-28T17:58:21.388Z,96731.13
2022-12-28T18:00:53.398Z,96723.28
2022-12-28T18:03:21.266Z,96726.00
2022-12-28T18:05:49.748Z,96726.56
2022-12-28T18:08:17.749Z,96723.53
2022-12-28T18:10:46.027Z,96717.72
2022-12-28T18:13:13.905Z,96713.28
2022-12-28T18:15:41.227Z,96722.84
2022-12-28T18:18:08.669Z,96716.25
2022-12-28T18:20:35.927Z,96714.66
2022-12-28T18:23:02.987Z,96712.22
2022-12-28T18:25:31.600Z,96720.81
2022-12-28T18:27:59.214Z,96708.84
2022-12-28T18:30:26.488Z,96706.41
2022-12-28T18:32:53.667Z,96709.81
2022-12-28T18:35:25.103Z,96701.41
2022-12-28T18:37:52.201Z,96700.63
2022-12-28T18:40:19.376Z,96697.66
2022-12-28T18:42:46.468Z,96692.66
2022-12-28T18:45:13.595Z,96688.47
2022-12-28T18:47:40.601Z,96686.09
2022-12-28T18:50:08.532Z,96684.84
2022-12-28T18:52:36.395Z,96681.00
2022-12-28T18:55:04.106Z,96687.91
2022-12-28T18:57:31.133Z,96687.28
2022-12-28T18:59:58.189Z,96679.28
2022-12-28T19:02:25.373Z,96681.59
2022-12-28T19:04:53.603Z,96677.13
2022-12-28T19:07:20.730Z,96665.97
2022-12-28T19:10:14.100Z,96670.56
2022-12-28T19:12:42.734Z,96671.25
2022-12-28T19:15:10.795Z,96671.47
2022-12-28T19:17:37.897Z,96676.19
2022-12-28T19:20:05.791Z,96673.94
2022-12-28T19:22:33.632Z,96673.44
2022-12-28T19:25:00.822Z,96669.47
2022-12-28T19:27:27.883Z,96669.75
2022-12-28T19:29:54.933Z,96657.06
2022-12-28T19:32:22.007Z,96651.69
2022-12-28T19:34:49.047Z,96646.13
2022-12-28T19:37:16.129Z,96645.59
2022-12-28T19:39:43.348Z,96644.81
2022-12-28T19:42:10.328Z,96645.59
2022-12-28T19:44:37.370Z,96643.56
2022-12-28T19:47:05.837Z,96648.66
2022-12-28T19:49:32.815Z,96645.53
2022-12-28T19:52:02.404Z,96650.34
2022-12-28T19:54:29.687Z,96640.78
2022-12-28T19:56:56.672Z,96639.19
2022-12-28T19:59:24.051Z,96630.81
2022-12-28T20:01:51.440Z,96631.78
2022-12-28T20:04:18.528Z,96631.34
2022-12-28T20:06:46.049Z,96636.09
2022-12-28T20:09:14.128Z,96631.44
2022-12-28T20:11:41.410Z,96634.22
2022-12-28T20:14:11.029Z,96631.75
2022-12-28T20:16:38.252Z,96628.53
2022-12-28T20:19:09.312Z,96626.13
2022-12-28T20:21:37.691Z,96631.66
2022-12-28T20:24:06.111Z,96627.66
2022-12-28T20:26:33.247Z,96627.03
2022-12-28T20:29:01.448Z,96641.94
2022-12-28T20:31:28.414Z,96634.09
2022-12-28T20:33:55.755Z,96635.72
2022-12-28T20:36:27.639Z,96622.59
2022-12-28T20:38:56.030Z,96612.25
2022-12-28T20:41:46.481Z,96616.97
2022-12-28T20:44:16.362Z,96609.34
2022-12-28T20:46:44.826Z,96606.53
2022-12-28T20:49:12.511Z,96597.00
2022-12-28T20:51:39.720Z,96592.69
2022-12-28T20:54:06.890Z,96582.97
2022-12-28T20:56:38.452Z,96585.41
2022-12-28T20:59:06.116Z,96577.97
2022-12-28T21:01:34.396Z,96574.75
2022-12-28T21:04:01.662Z,96575.50
2022-12-28T21:06:28.809Z,96578.81
2022-12-28T21:08:56.007Z,96577.94
2022-12-28T21:11:23.258Z,96567.16
2022-12-28T21:13:50.471Z,96569.75
2022-12-28T21:16:18.161Z,96570.97
2022-12-28T21:18:45.287Z,96564.19
2022-12-28T21:21:17.204Z,96567.25
2022-12-28T21:23:44.553Z,96552.69
2022-12-28T21:26:17.388Z,96561.88
2022-12-28T21:28:45.116Z,96552.69
2022-12-28T21:31:13.060Z,96547.16
2022-12-28T21:33:41.263Z,96551.34
2022-12-28T21:36:20.539Z,96544.03
2022-12-28T21:38:49.275Z,96550.91
2022-12-28T21:41:38.807Z,96541.16
2022-12-28T21:44:07.257Z,96539.03
2022-12-28T21:46:34.670Z,96531.63
2022-12-28T21:49:03.778Z,96532.81
2022-12-28T21:51:31.588Z,96527.19
2022-12-28T21:54:11.595Z,96520.16
2022-12-28T21:56:39.490Z,96522.13
2022-12-28T21:59:06.993Z,96515.00
2022-12-28T22:01:53.118Z,96514.63
2022-12-28T22:04:41.027Z,96517.00
2022-12-28T22:07:10.928Z,96504.66
2022-12-28T22:09:56.911Z,96504.75
2022-12-28T22:12:37.653Z,96505.47
2022-12-28T22:15:31.087Z,96507.09
2022-12-28T22:18:03.009Z,96501.47
2022-12-28T22:20:31.128Z,96503.56
2022-12-28T22:22:59.886Z,96507.94
2022-12-28T22:25:28.965Z,96507.13
2022-12-28T22:27:57.023Z,96498.84
2022-12-28T22:30:24.365Z,96500.19
2022-12-28T22:32:51.477Z,96496.53
2022-12-28T22:35:19.057Z,96500.28
2022-12-28T22:37:46.244Z,96495.44
2022-12-28T22:40:13.506Z,96490.09
2022-12-28T22:42:42.552Z,96480.16
2022-12-28T22:45:15.637Z,96478.97
2022-12-28T22:47:43.662Z,96478.63
2022-12-28T22:50:12.817Z,96476.69
2022-12-28T22:52:40.646Z,96475.50
2022-12-28T22:55:08.352Z,96473.38
2022-12-28T22:57:35.689Z,96467.25
2022-12-28T23:00:03.810Z,96470.41
2022-12-28T23:02:30.877Z,96471.22
2022-12-28T23:04:58.116Z,96464.09
2022-12-28T23:07:25.229Z,96471.31
2022-12-28T23:09:52.233Z,96463.22
2022-12-28T23:12:19.247Z,96467.41
2022-12-28T23:15:04.767Z,96466.84
2022-12-28T23:17:31.958Z,96463.03
2022-12-28T23:20:17.708Z,96454.31
2022-12-28T23:23:03.325Z,96452.50
2022-12-28T23:25:48.966Z,96446.72
2022-12-28T23:28:17.155Z,96459.19
2022-12-28T23:30:49.004Z,96451.81
2022-12-28T23:33:16.904Z,96449.75
2022-12-28T23:35:44.753Z,96446.66
2022-12-28T23:38:12.276Z,96436.50
2022-12-28T23:40:40.669Z,96443.63
2022-12-28T23:43:08.226Z,96425.63
2022-12-28T23:45:35.787Z,96428.22
2022-12-28T23:48:02.880Z,96421.00
2022-12-28T23:50:30.036Z,96424.31
2022-12-28T23:52:57.096Z,96423.44
2022-12-28T23:55:24.117Z,96425.53
2022-12-28T23:57:51.229Z,96414.25
